createdAt,value
2018-09-09T00:01:18.652Z,18.30
2018-09-09T00:03:47.327Z,17.97
2018-09-09T00:06:15.988Z,19.97
2018-09-09T00:08:44.644Z,18.17
2018-09-09T00:11:13.286Z,18.97
2018-09-09T00:13:41.943Z,19.70
2018-09-09T00:16:10.588Z,18.83
2018-09-09T00:18:39.243Z,18.30
2018-09-09T00:21:07.947Z,18.63
2018-09-09T00:23:36.633Z,18.90
2018-09-09T00:26:05.319Z,19.13
2018-09-09T00:28:33.933Z,18.83
2018-09-09T00:31:02.571Z,17.93
2018-09-09T00:33:31.291Z,17.90
2018-09-09T00:36:00.013Z,18.57
2018-09-09T00:38:28.684Z,17.40
2018-09-09T00:40:57.327Z,17.00
2018-09-09T00:43:26.025Z,17.97
2018-09-09T00:45:54.701Z,19.27
2018-09-09T00:48:23.353Z,17.80
2018-09-09T00:50:57.270Z,17.53
2018-09-09T00:53:31.153Z,19.20
2018-09-09T00:55:59.839Z,17.93
2018-09-09T00:58:28.475Z,19.97
2018-09-09T01:01:02.424Z,17.37
2018-09-09T01:03:31.196Z,17.20
2018-09-09T01:05:59.869Z,16.63
2018-09-09T01:08:28.528Z,17.50
2018-09-09T01:10:57.166Z,17.43
2018-09-09T01:13:25.772Z,17.20
2018-09-09T01:15:54.498Z,18.77
2018-09-09T01:18:23.155Z,17.00
2018-09-09T01:20:51.862Z,18.40
2018-09-09T01:23:20.625Z,17.07
2018-09-09T01:25:49.301Z,18.00
2018-09-09T01:28:17.934Z,16.70
2018-09-09T01:30:46.591Z,17.63
2018-09-09T01:33:15.224Z,16.80
2018-09-09T01:35:43.964Z,16.77
2018-09-09T01:38:12.608Z,18.57
2018-09-09T01:40:41.299Z,17.10
2018-09-09T01:43:09.955Z,17.03
2018-09-09T01:45:38.734Z,18.90
2018-09-09T01:48:07.414Z,18.20
2018-09-09T01:50:36.050Z,17.63
2018-09-09T01:53:04.822Z,18.37
2018-09-09T01:55:33.820Z,16.67
2018-09-09T01:58:02.482Z,18.23
2018-09-09T02:00:31.152Z,18.90
2018-09-09T02:02:59.795Z,17.10
2018-09-09T02:05:28.494Z,17.80
2018-09-09T02:07:57.161Z,17.53
2018-09-09T02:10:25.839Z,15.57
2018-09-09T02:12:54.459Z,17.93
2018-09-09T02:15:23.124Z,18.33
2018-09-09T02:17:51.787Z,18.07
2018-09-09T02:20:20.464Z,18.37
2018-09-09T02:22:49.131Z,20.13
2018-09-09T02:25:17.827Z,17.43
2018-09-09T02:27:46.424Z,17.97
2018-09-09T02:30:15.071Z,17.77
2018-09-09T02:32:43.706Z,18.53
2018-09-09T02:35:12.343Z,17.90
2018-09-09T02:37:41.039Z,18.47
2018-09-09T02:40:09.755Z,18.53
2018-09-09T02:42:38.443Z,19.73
2018-09-09T02:45:07.110Z,19.07
2018-09-09T02:47:35.811Z,19.27
2018-09-09T02:50:04.566Z,21.03
2018-09-09T02:52:33.798Z,19.30
2018-09-09T02:55:02.494Z,20.93
2018-09-09T02:57:31.126Z,19.23
2018-09-09T02:59:59.748Z,19.90
2018-09-09T03:02:28.421Z,19.73
2018-09-09T03:04:57.059Z,18.57
2018-09-09T03:07:25.691Z,20.20
2018-09-09T03:09:54.316Z,19.10
2018-09-09T03:12:22.938Z,21.07
2018-09-09T03:14:51.608Z,18.97
2018-09-09T03:17:20.239Z,20.67
2018-09-09T03:19:48.880Z,20.77
2018-09-09T03:22:17.524Z,20.30
2018-09-09T03:24:46.187Z,19.33
2018-09-09T03:27:14.856Z,20.67
2018-09-09T03:29:43.567Z,22.23
2018-09-09T03:32:12.202Z,23.90
2018-09-09T03:34:40.876Z,21.87
2018-09-09T03:37:09.520Z,21.27
2018-09-09T03:39:38.269Z,21.67
2018-09-09T03:42:07.284Z,21.20
2018-09-09T03:44:35.911Z,21.60
2018-09-09T03:47:04.603Z,21.43
2018-09-09T03:49:33.217Z,21.87
2018-09-09T03:52:01.894Z,21.43
2018-09-09T03:54:30.535Z,21.37
2018-09-09T03:56:59.198Z,21.93
2018-09-09T03:59:27.943Z,22.13
2018-09-09T04:01:56.546Z,21.13
2018-09-09T04:04:25.228Z,20.73
2018-09-09T04:06:53.907Z,20.83
2018-09-09T04:09:22.592Z,20.97
2018-09-09T04:11:51.246Z,21.87
2018-09-09T04:14:19.859Z,21.90
2018-09-09T04:16:48.498Z,21.37
2018-09-09T04:19:17.230Z,21.33
2018-09-09T04:21:50.059Z,21.70
2018-09-09T04:24:19.059Z,22.50
2018-09-09T04:26:47.848Z,22.80
2018-09-09T04:29:16.573Z,21.40
2018-09-09T04:31:45.428Z,23.73
2018-09-09T04:34:14.336Z,21.00
2018-09-09T04:36:43.635Z,23.33
2018-09-09T04:39:14.498Z,22.37
2018-09-09T04:41:43.199Z,23.93
2018-09-09T04:44:13.284Z,23.57
2018-09-09T04:46:41.985Z,23.23
2018-09-09T04:49:10.976Z,24.10
2018-09-09T04:51:39.888Z,21.57
2018-09-09T04:54:08.566Z,23.67
2018-09-09T04:56:37.190Z,24.73
2018-09-09T04:59:06.186Z,22.93
2018-09-09T05:01:38.280Z,22.47
2018-09-09T05:04:06.926Z,23.80
2018-09-09T05:06:36.512Z,24.00
2018-09-09T05:09:06.453Z,24.40
2018-09-09T05:11:35.279Z,24.17
2018-09-09T05:14:04.031Z,26.47
2018-09-09T05:16:32.772Z,24.90
2018-09-09T05:19:01.480Z,25.63
2018-09-09T05:21:30.223Z,25.93
2018-09-09T05:23:58.854Z,24.20
2018-09-09T05:26:27.504Z,24.70
2018-09-09T05:28:56.139Z,23.77
2018-09-09T05:31:24.776Z,22.80
2018-09-09T05:33:53.466Z,22.20
2018-09-09T05:36:22.125Z,22.57
2018-09-09T05:38:50.809Z,22.63
2018-09-09T05:41:19.468Z,23.57
2018-09-09T05:43:48.099Z,32.97
2018-09-09T05:46:16.762Z,21.70
2018-09-09T05:48:45.447Z,22.60
2018-09-09T05:51:14.192Z,22.30
2018-09-09T05:53:42.937Z,22.40
2018-09-09T05:56:11.571Z,21.30
2018-09-09T05:58:40.246Z,21.60
2018-09-09T06:01:08.940Z,23.53
2018-09-09T06:04:16.560Z,24.43
2018-09-09T06:06:45.180Z,22.77
2018-09-09T06:09:13.890Z,23.50
2018-09-09T06:11:42.559Z,22.97
2018-09-09T06:14:11.200Z,23.40
2018-09-09T06:16:39.881Z,23.60
2018-09-09T06:19:08.521Z,24.80
2018-09-09T06:21:37.220Z,23.03
2018-09-09T06:24:06.065Z,23.23
2018-09-09T06:26:34.694Z,21.97
2018-09-09T06:29:03.341Z,21.43
2018-09-09T06:31:32.014Z,21.33
2018-09-09T06:34:00.735Z,21.87
2018-09-09T06:36:29.387Z,29.87
2018-09-09T06:38:58.622Z,26.00
2018-09-09T06:41:27.242Z,20.97
2018-09-09T06:43:55.922Z,25.67
2018-09-09T06:46:24.655Z,22.13
2018-09-09T06:48:53.301Z,20.87
2018-09-09T06:51:22.096Z,24.97
2018-09-09T06:53:50.798Z,21.57
2018-09-09T06:56:19.471Z,20.07
2018-09-09T06:58:48.211Z,19.60
2018-09-09T07:01:16.942Z,19.63
2018-09-09T07:03:45.543Z,21.53
2018-09-09T07:06:14.192Z,18.80
2018-09-09T07:08:42.916Z,19.40
2018-09-09T07:11:11.758Z,19.80
2018-09-09T07:13:40.373Z,24.30
2018-09-09T07:16:09.006Z,23.90
2018-09-09T07:18:37.679Z,19.67
2018-09-09T07:21:06.384Z,18.03
2018-09-09T07:23:35.075Z,19.07
2018-09-09T07:26:03.807Z,16.70
2018-09-09T07:28:32.441Z,18.33
2018-09-09T07:31:01.173Z,18.63
2018-09-09T07:33:29.823Z,18.30
2018-09-09T07:35:58.507Z,17.30
2018-09-09T07:38:27.132Z,18.83
2018-09-09T07:40:55.786Z,15.40
2018-09-09T07:43:24.515Z,16.90
2018-09-09T07:45:53.164Z,16.47
2018-09-09T07:48:21.831Z,16.83
2018-09-09T07:50:50.553Z,20.23
2018-09-09T07:53:19.255Z,15.70
2018-09-09T07:55:47.939Z,24.93
2018-09-09T07:58:16.635Z,15.90
2018-09-09T08:00:45.350Z,18.27
2018-09-09T08:03:14.107Z,19.97
2018-09-09T08:05:42.843Z,17.37
2018-09-09T08:08:11.572Z,16.60
2018-09-09T08:10:40.256Z,20.50
2018-09-09T08:13:08.946Z,21.73
2018-09-09T08:15:37.575Z,15.17
2018-09-09T08:18:06.305Z,14.90
2018-09-09T08:20:34.934Z,17.10
2018-09-09T08:23:03.674Z,30.20
2018-09-09T08:25:32.331Z,15.77
2018-09-09T08:28:01.018Z,20.57
2018-09-09T08:30:29.692Z,15.13
2018-09-09T08:32:58.355Z,15.80
2018-09-09T08:35:27.042Z,17.00
2018-09-09T08:37:55.808Z,19.00
2018-09-09T08:40:24.447Z,19.33
2018-09-09T08:42:53.102Z,14.30
2018-09-09T08:45:21.799Z,16.50
2018-09-09T08:47:49.363Z,16.37
2018-09-09T08:50:18.029Z,16.33
2018-09-09T08:52:46.746Z,14.13
2018-09-09T08:55:15.378Z,15.13
2018-09-09T08:57:44.098Z,14.77
2018-09-09T09:00:12.781Z,15.07
2018-09-09T09:02:41.457Z,13.50
2018-09-09T09:05:10.171Z,14.17
2018-09-09T09:07:38.884Z,21.67
2018-09-09T09:10:07.694Z,17.23
2018-09-09T09:12:36.344Z,17.47
2018-09-09T09:15:04.988Z,13.97
2018-09-09T09:17:33.615Z,13.07
2018-09-09T09:20:02.373Z,16.43
2018-09-09T09:22:31.055Z,14.33
2018-09-09T09:24:59.736Z,13.60
2018-09-09T09:27:28.392Z,17.50
2018-09-09T09:29:57.590Z,14.03
2018-09-09T09:32:26.663Z,20.43
2018-09-09T09:34:56.070Z,12.07
2018-09-09T09:37:26.419Z,11.97
2018-09-09T09:39:55.927Z,13.87
2018-09-09T09:42:25.219Z,13.50
2018-09-09T09:44:53.981Z,14.10
2018-09-09T09:47:22.639Z,12.90
2018-09-09T09:49:51.269Z,12.83
2018-09-09T09:52:19.914Z,14.47
2018-09-09T09:54:48.548Z,12.70
2018-09-09T09:57:17.170Z,12.70
2018-09-09T09:59:45.865Z,12.83
2018-09-09T10:02:14.538Z,18.53
2018-09-09T10:04:43.217Z,14.23
2018-09-09T10:07:11.891Z,12.93
2018-09-09T10:09:40.533Z,12.37
2018-09-09T10:12:09.255Z,15.87
2018-09-09T10:14:37.996Z,12.67
2018-09-09T10:17:06.691Z,10.30
2018-09-09T10:19:35.305Z,11.43
2018-09-09T10:22:03.981Z,12.90
2018-09-09T10:24:32.646Z,15.37
2018-09-09T10:27:01.363Z,24.80
2018-09-09T10:29:30.003Z,11.90
2018-09-09T10:31:58.642Z,13.47
2018-09-09T10:34:27.316Z,10.60
2018-09-09T10:36:56.107Z,11.80
2018-09-09T10:39:24.760Z,12.57
2018-09-09T10:41:53.384Z,10.60
2018-09-09T10:44:22.081Z,13.55
2018-09-09T10:46:50.875Z,10.75
2018-09-09T10:49:19.467Z,11.07
2018-09-09T10:51:48.157Z,11.85
2018-09-09T10:54:16.844Z,11.40
2018-09-09T10:56:45.471Z,11.70
2018-09-09T10:59:14.113Z,11.40
2018-09-09T11:01:42.766Z,12.90
2018-09-09T11:04:11.403Z,14.47
2018-09-09T11:06:40.181Z,12.13
2018-09-09T11:09:09.933Z,13.78
2018-09-09T11:11:38.748Z,12.90
2018-09-09T11:14:07.427Z,12.70
2018-09-09T11:16:36.085Z,11.47
2018-09-09T11:19:04.826Z,12.33
2018-09-09T11:21:33.483Z,12.30
2018-09-09T11:24:02.179Z,12.67
2018-09-09T11:26:30.888Z,11.70
2018-09-09T11:28:59.554Z,9.20
2018-09-09T11:31:28.229Z,13.20
2018-09-09T11:33:56.905Z,12.93
2018-09-09T11:36:25.597Z,13.17
2018-09-09T11:38:54.296Z,15.23
2018-09-09T11:41:23.020Z,15.20
2018-09-09T11:43:51.703Z,13.07
2018-09-09T11:46:20.650Z,11.40
2018-09-09T11:48:49.356Z,13.97
2018-09-09T11:51:18.028Z,13.27
2018-09-09T11:53:46.719Z,17.63
2018-09-09T11:56:15.460Z,18.10
2018-09-09T11:58:44.208Z,15.47
2018-09-09T12:01:12.921Z,15.13
2018-09-09T12:03:41.589Z,17.70
2018-09-09T12:06:10.246Z,14.33
2018-09-09T12:08:38.878Z,48.77
2018-09-09T12:11:07.577Z,19.43
2018-09-09T12:13:36.281Z,11.27
2018-09-09T12:16:05.123Z,21.83
2018-09-09T12:18:33.789Z,12.07
2018-09-09T12:21:02.551Z,12.07
2018-09-09T12:23:31.356Z,18.83
2018-09-09T12:26:00.029Z,19.97
2018-09-09T12:28:28.713Z,16.57
2018-09-09T12:30:57.366Z,16.10
2018-09-09T12:33:25.989Z,16.37
2018-09-09T12:35:54.669Z,15.00
2018-09-09T12:38:23.327Z,14.37
2018-09-09T12:40:51.960Z,14.07
2018-09-09T12:43:25.775Z,17.13
2018-09-09T12:45:59.594Z,15.20
2018-09-09T12:48:33.502Z,15.57
2018-09-09T12:51:02.164Z,20.23
2018-09-09T12:53:30.798Z,20.17
2018-09-09T12:55:59.463Z,14.83
2018-09-09T12:58:28.143Z,19.97
2018-09-09T13:00:56.802Z,12.83
2018-09-09T13:03:25.460Z,13.60
2018-09-09T13:05:54.096Z,17.73
2018-09-09T13:08:22.733Z,25.53
2018-09-09T13:10:51.436Z,20.30
2018-09-09T13:13:20.818Z,15.70
2018-09-09T13:15:50.025Z,24.00
2018-09-09T13:18:18.736Z,19.63
2018-09-09T13:20:47.384Z,11.77
2018-09-09T13:23:16.021Z,11.03
2018-09-09T13:25:44.679Z,11.50
2018-09-09T13:28:13.394Z,10.50
2018-09-09T13:30:42.069Z,13.70
2018-09-09T13:33:10.735Z,10.77
2018-09-09T13:35:39.369Z,10.67
2018-09-09T13:38:08.078Z,9.60
2018-09-09T13:40:36.795Z,12.33
2018-09-09T13:43:05.615Z,13.47
2018-09-09T13:45:34.286Z,13.17
2018-09-09T13:48:03.144Z,12.70
2018-09-09T13:50:31.810Z,12.53
2018-09-09T13:53:00.464Z,12.63
2018-09-09T13:55:29.154Z,12.17
2018-09-09T13:57:57.795Z,10.13
2018-09-09T14:00:26.470Z,11.20
2018-09-09T14:02:55.149Z,11.33
2018-09-09T14:05:23.859Z,10.73
2018-09-09T14:07:52.538Z,12.77
2018-09-09T14:10:21.222Z,10.17
2018-09-09T14:12:49.887Z,11.17
2018-09-09T14:15:18.625Z,10.40
2018-09-09T14:17:47.290Z,10.47
2018-09-09T14:20:16.000Z,9.47
2018-09-09T14:22:44.709Z,9.63
2018-09-09T14:25:13.302Z,9.83
2018-09-09T14:27:42.042Z,10.50
2018-09-09T14:31:40.087Z,12.03
2018-09-09T14:34:08.906Z,10.98
2018-09-09T14:36:37.564Z,13.13
2018-09-09T14:39:08.327Z,13.40
2018-09-09T14:41:37.047Z,10.93
2018-09-09T14:44:06.044Z,9.73
2018-09-09T14:46:34.822Z,7.50
2018-09-09T14:49:03.514Z,6.10
2018-09-09T14:51:32.241Z,6.12
2018-09-09T14:54:01.001Z,6.35
2018-09-09T14:56:29.760Z,6.00
2018-09-09T14:58:58.925Z,7.10
2018-09-09T15:01:27.692Z,9.53
2018-09-09T15:03:56.402Z,6.43
2018-09-09T15:06:25.186Z,7.33
2018-09-09T15:08:54.080Z,5.60
2018-09-09T15:11:22.814Z,9.67
2018-09-09T15:13:51.583Z,6.57
2018-09-09T15:16:20.234Z,5.97
2018-09-09T15:18:48.946Z,6.80
2018-09-09T15:21:17.702Z,5.33
2018-09-09T15:23:46.376Z,6.77
2018-09-09T15:26:15.130Z,5.93
2018-09-09T15:28:43.858Z,5.83
2018-09-09T15:31:12.535Z,7.93
2018-09-09T15:33:41.258Z,6.27
2018-09-09T15:36:10.550Z,5.87
2018-09-09T15:38:39.443Z,6.37
2018-09-09T15:41:08.213Z,7.57
2018-09-09T15:43:37.072Z,8.37
2018-09-09T15:46:06.431Z,7.50
2018-09-09T15:48:35.184Z,5.53
2018-09-09T15:51:04.118Z,7.43
2018-09-09T15:53:32.849Z,6.37
2018-09-09T15:56:01.589Z,7.67
2018-09-09T15:58:30.302Z,5.93
2018-09-09T16:00:59.088Z,6.40
2018-09-09T16:03:27.941Z,7.53
2018-09-09T16:05:57.300Z,7.00
2018-09-09T16:08:26.086Z,7.67
2018-09-09T16:10:54.855Z,7.30
2018-09-09T16:13:23.667Z,6.93
2018-09-09T16:15:52.397Z,7.47
2018-09-09T16:18:21.157Z,7.73
2018-09-09T16:20:49.888Z,6.67
2018-09-09T16:23:18.753Z,7.13
2018-09-09T16:25:47.617Z,7.63
2018-09-09T16:28:16.341Z,8.07
2018-09-09T16:30:45.725Z,9.70
2018-09-09T16:33:14.398Z,8.47
2018-09-09T16:35:43.187Z,7.90
2018-09-09T16:38:11.898Z,7.87
2018-09-09T16:40:40.721Z,8.00
2018-09-09T16:43:11.064Z,11.17
2018-09-09T16:45:40.548Z,7.83
2018-09-09T16:48:09.288Z,7.80
2018-09-09T16:50:38.099Z,8.10
2018-09-09T16:53:07.022Z,10.23
2018-09-09T16:57:23.623Z,7.47
2018-09-09T16:59:52.320Z,9.63
2018-09-09T17:02:21.098Z,8.40
2018-09-09T17:04:49.851Z,8.70
2018-09-09T17:07:18.572Z,8.13
2018-09-09T17:09:47.754Z,10.67
2018-09-09T17:12:16.772Z,7.77
2018-09-09T17:14:45.570Z,9.23
2018-09-09T17:17:14.314Z,12.50
2018-09-09T17:19:42.993Z,8.67
2018-09-09T17:22:11.715Z,8.57
2018-09-09T17:24:40.489Z,8.90
2018-09-09T17:27:09.300Z,8.00
2018-09-09T17:29:38.056Z,9.03
2018-09-09T17:32:06.771Z,7.13
2018-09-09T17:34:35.475Z,8.67
2018-09-09T17:37:04.546Z,7.23
2018-09-09T17:39:33.262Z,9.17
2018-09-09T17:42:01.916Z,9.13
2018-09-09T17:44:30.788Z,9.40
2018-09-09T17:46:59.631Z,8.00
2018-09-09T17:49:28.334Z,8.80
2018-09-09T17:51:57.132Z,9.33
2018-09-09T17:54:25.809Z,7.50
2018-09-09T17:56:54.607Z,7.43
2018-09-09T17:59:23.445Z,7.43
2018-09-09T18:01:52.239Z,7.43
2018-09-09T18:04:21.074Z,7.70
2018-09-09T18:06:49.782Z,7.07
2018-09-09T18:09:18.552Z,7.17
2018-09-09T18:11:47.387Z,6.80
2018-09-09T18:14:16.000Z,9.43
2018-09-09T18:16:44.702Z,7.83
2018-09-09T18:19:13.581Z,8.87
2018-09-09T18:21:42.305Z,7.33
2018-09-09T18:24:11.122Z,7.00
2018-09-09T18:26:39.824Z,7.07
2018-09-09T18:29:08.525Z,8.97
2018-09-09T18:31:37.231Z,8.17
2018-09-09T18:34:05.912Z,9.53
2018-09-09T18:36:34.640Z,8.83
2018-09-09T18:39:03.628Z,9.77
2018-09-09T18:41:32.311Z,8.90
2018-09-09T18:44:01.255Z,9.40
2018-09-09T18:46:30.097Z,6.70
2018-09-09T18:48:58.961Z,6.57
2018-09-09T18:51:27.775Z,14.10
2018-09-09T18:53:56.600Z,7.10
2018-09-09T18:56:25.357Z,7.53
2018-09-09T18:58:54.260Z,6.80
2018-09-09T19:01:23.016Z,6.33
2018-09-09T19:03:51.770Z,7.97
2018-09-09T19:06:20.642Z,8.63
2018-09-09T19:08:49.267Z,8.67
2018-09-09T19:11:17.946Z,6.77
2018-09-09T19:13:46.678Z,7.00
2018-09-09T19:16:15.417Z,8.70
2018-09-09T19:18:44.159Z,6.50
2018-09-09T19:21:12.934Z,8.60
2018-09-09T19:23:41.683Z,6.93
2018-09-09T19:26:10.369Z,8.63
2018-09-09T19:28:40.570Z,10.23
2018-09-09T19:31:09.294Z,9.50
2018-09-09T19:33:38.049Z,8.17
2018-09-09T19:36:06.872Z,11.57
2018-09-09T19:38:35.660Z,8.30
2018-09-09T19:41:04.351Z,8.77
2018-09-09T19:43:33.345Z,8.93
2018-09-09T19:46:02.066Z,9.03
2018-09-09T19:48:30.727Z,7.40
2018-09-09T19:50:59.445Z,15.27
2018-09-09T19:53:28.140Z,7.20
2018-09-09T19:55:56.853Z,6.97
2018-09-09T19:58:25.807Z,7.47
2018-09-09T20:00:54.492Z,9.47
2018-09-09T20:03:23.276Z,7.03
2018-09-09T20:05:51.981Z,7.13
2018-09-09T20:08:20.630Z,7.70
2018-09-09T20:10:49.371Z,8.07
2018-09-09T20:13:18.071Z,6.60
2018-09-09T20:15:46.926Z,10.47
2018-09-09T20:18:15.535Z,6.10
2018-09-09T20:20:44.243Z,6.60
2018-09-09T20:23:13.291Z,8.63
2018-09-09T20:25:41.943Z,6.87
2018-09-09T20:28:10.615Z,7.73
2018-09-09T20:30:39.379Z,7.27
2018-09-09T20:33:08.049Z,7.53
2018-09-09T20:35:36.717Z,6.57
2018-09-09T20:38:05.507Z,10.60
2018-09-09T20:40:34.173Z,8.93
2018-09-09T20:43:02.858Z,6.83
2018-09-09T20:45:31.627Z,6.70
2018-09-09T20:48:00.563Z,7.60
2018-09-09T20:50:29.326Z,9.37
2018-09-09T20:52:58.173Z,8.63
2018-09-09T20:55:26.810Z,7.10
2018-09-09T20:57:55.500Z,7.50
2018-09-09T21:00:24.303Z,7.27
2018-09-09T21:02:53.660Z,6.93
2018-09-09T21:05:22.518Z,8.93
2018-09-09T21:07:51.318Z,6.77
2018-09-09T21:10:19.997Z,7.63
2018-09-09T21:12:48.671Z,6.30
2018-09-09T21:15:17.519Z,8.57
2018-09-09T21:17:46.334Z,7.33
2018-09-09T21:20:15.139Z,7.27
2018-09-09T21:22:43.976Z,7.60
2018-09-09T21:25:12.783Z,10.47
2018-09-09T21:27:41.667Z,7.77
2018-09-09T21:30:10.499Z,7.63
2018-09-09T21:32:39.235Z,8.37
2018-09-09T21:35:08.018Z,7.23
2018-09-09T21:37:36.709Z,7.00
2018-09-09T21:40:05.455Z,8.13
2018-09-09T21:42:34.214Z,10.03
2018-09-09T21:45:02.882Z,7.60
2018-09-09T21:47:31.681Z,8.87
2018-09-09T21:50:00.467Z,7.43
2018-09-09T21:52:29.184Z,7.93
2018-09-09T21:54:57.947Z,7.30
2018-09-09T21:57:26.724Z,7.57
2018-09-09T21:59:55.441Z,7.40
2018-09-09T22:02:24.114Z,8.33
2018-09-09T22:04:52.942Z,9.67
2018-09-09T22:07:21.771Z,9.17
2018-09-09T22:09:50.575Z,8.20
2018-09-09T22:12:19.448Z,7.47
2018-09-09T22:14:48.202Z,8.83
2018-09-09T22:17:16.875Z,8.33
2018-09-09T22:19:45.659Z,8.43
2018-09-09T22:22:14.351Z,7.67
2018-09-09T22:24:43.081Z,8.57
2018-09-09T22:27:12.442Z,9.23
2018-09-09T22:29:41.130Z,8.43
2018-09-09T22:32:09.816Z,9.00
2018-09-09T22:34:38.493Z,10.57
2018-09-09T22:37:07.138Z,7.70
2018-09-09T22:39:35.794Z,7.93
2018-09-09T22:42:04.508Z,9.50
2018-09-09T22:44:33.263Z,9.13
2018-09-09T22:47:01.911Z,8.97
2018-09-09T22:49:30.587Z,8.57
2018-09-09T22:51:59.292Z,9.47
2018-09-09T22:54:28.015Z,8.87
2018-09-09T22:56:56.656Z,9.57
2018-09-09T22:59:25.375Z,8.63
2018-09-09T23:01:54.148Z,9.90
2018-09-09T23:04:22.778Z,8.77
2018-09-09T23:06:51.820Z,11.30
2018-09-09T23:09:20.502Z,10.90
2018-09-09T23:11:49.807Z,10.23
2018-09-09T23:14:18.521Z,9.33
2018-09-09T23:16:47.255Z,9.27
2018-09-09T23:19:15.904Z,12.13
2018-09-09T23:21:44.557Z,9.20
2018-09-09T23:24:13.182Z,10.13
2018-09-09T23:26:41.855Z,11.30
2018-09-09T23:29:10.510Z,11.60
2018-09-09T23:34:38.438Z,9.73
2018-09-09T23:37:07.159Z,12.67
2018-09-09T23:39:35.810Z,9.90
2018-09-09T23:42:04.562Z,12.33
2018-09-09T23:44:33.229Z,8.90
2018-09-09T23:47:01.907Z,9.53
2018-09-09T23:49:30.590Z,9.53
2018-09-09T23:51:59.255Z,9.07
2018-09-09T23:54:27.968Z,9.20
2018-09-09T23:56:56.740Z,9.60
2018-09-09T23:59:25.415Z,9.73
